sensor_id;sensor_type;location;lat;lon;timestamp;temperature;humidity
13569;DHT22;6856;51.460;7.158;2023-09-12T00:02:26;26.60;53.80
13569;DHT22;6856;51.460;7.158;2023-09-12T00:05:03;26.60;54.00
13569;DHT22;6856;51.460;7.158;2023-09-12T00:07:39;26.60;54.00
13569;DHT22;6856;51.460;7.158;2023-09-12T00:10:13;26.60;54.20
13569;DHT22;6856;51.460;7.158;2023-09-12T00:12:47;26.60;54.20
13569;DHT22;6856;51.460;7.158;2023-09-12T00:15:21;26.50;54.10
13569;DHT22;6856;51.460;7.158;2023-09-12T00:17:55;26.50;54.20
13569;DHT22;6856;51.460;7.158;2023-09-12T00:20:33;26.50;54.20
13569;DHT22;6856;51.460;7.158;2023-09-12T00:23:07;26.40;54.10
13569;DHT22;6856;51.460;7.158;2023-09-12T00:25:40;26.40;54.10
13569;DHT22;6856;51.460;7.158;2023-09-12T00:28:16;26.40;54.20
13569;DHT22;6856;51.460;7.158;2023-09-12T00:30:53;26.40;54.20
13569;DHT22;6856;51.460;7.158;2023-09-12T00:33:27;26.30;54.30
13569;DHT22;6856;51.460;7.158;2023-09-12T00:36:03;26.30;54.30
13569;DHT22;6856;51.460;7.158;2023-09-12T00:38:37;26.30;54.40
13569;DHT22;6856;51.460;7.158;2023-09-12T00:41:11;26.30;54.30
13569;DHT22;6856;51.460;7.158;2023-09-12T00:43:45;26.30;54.40
13569;DHT22;6856;51.460;7.158;2023-09-12T00:46:22;26.20;54.40
13569;DHT22;6856;51.460;7.158;2023-09-12T00:48:57;26.20;54.60
13569;DHT22;6856;51.460;7.158;2023-09-12T00:51:35;26.20;54.70
13569;DHT22;6856;51.460;7.158;2023-09-12T00:54:10;26.10;54.60
13569;DHT22;6856;51.460;7.158;2023-09-12T00:56:44;26.10;54.70
13569;DHT22;6856;51.460;7.158;2023-09-12T00:59:18;26.10;54.90
13569;DHT22;6856;51.460;7.158;2023-09-12T01:01:53;26.00;54.90
13569;DHT22;6856;51.460;7.158;2023-09-12T01:04:27;26.00;55.10
13569;DHT22;6856;51.460;7.158;2023-09-12T01:07:07;25.90;55.10
13569;DHT22;6856;51.460;7.158;2023-09-12T01:09:42;25.90;55.20
13569;DHT22;6856;51.460;7.158;2023-09-12T01:12:16;25.80;55.30
13569;DHT22;6856;51.460;7.158;2023-09-12T01:14:50;25.80;55.40
13569;DHT22;6856;51.460;7.158;2023-09-12T01:17:24;25.70;55.50
13569;DHT22;6856;51.460;7.158;2023-09-12T01:19:59;25.70;55.60
13569;DHT22;6856;51.460;7.158;2023-09-12T01:23:08;25.60;55.70
13569;DHT22;6856;51.460;7.158;2023-09-12T01:26:17;25.60;56.10
13569;DHT22;6856;51.460;7.158;2023-09-12T01:29:00;25.50;56.00
13569;DHT22;6856;51.460;7.158;2023-09-12T01:31:37;25.50;56.00
13569;DHT22;6856;51.460;7.158;2023-09-12T01:34:12;25.50;56.00
13569;DHT22;6856;51.460;7.158;2023-09-12T01:36:46;25.50;56.00
13569;DHT22;6856;51.460;7.158;2023-09-12T01:39:20;25.50;56.10
13569;DHT22;6856;51.460;7.158;2023-09-12T01:41:54;25.50;56.10
13569;DHT22;6856;51.460;7.158;2023-09-12T01:44:33;25.40;56.20
13569;DHT22;6856;51.460;7.158;2023-09-12T01:47:11;25.50;56.40
13569;DHT22;6856;51.460;7.158;2023-09-12T01:49:49;25.40;56.20
13569;DHT22;6856;51.460;7.158;2023-09-12T01:52:25;25.40;56.40
13569;DHT22;6856;51.460;7.158;2023-09-12T01:55:02;25.40;56.40
13569;DHT22;6856;51.460;7.158;2023-09-12T01:57:43;25.40;56.40
13569;DHT22;6856;51.460;7.158;2023-09-12T02:00:19;25.40;56.40
13569;DHT22;6856;51.460;7.158;2023-09-12T02:02:54;25.50;56.50
13569;DHT22;6856;51.460;7.158;2023-09-12T02:05:28;25.50;56.40
13569;DHT22;6856;51.460;7.158;2023-09-12T02:08:06;25.40;56.50
13569;DHT22;6856;51.460;7.158;2023-09-12T02:10:40;25.50;56.50
13569;DHT22;6856;51.460;7.158;2023-09-12T02:13:14;25.40;56.60
13569;DHT22;6856;51.460;7.158;2023-09-12T02:15:58;25.40;56.40
13569;DHT22;6856;51.460;7.158;2023-09-12T02:18:33;25.40;56.70
13569;DHT22;6856;51.460;7.158;2023-09-12T02:21:06;25.40;56.50
13569;DHT22;6856;51.460;7.158;2023-09-12T02:23:40;25.40;56.60
13569;DHT22;6856;51.460;7.158;2023-09-12T02:26:14;25.40;56.60
13569;DHT22;6856;51.460;7.158;2023-09-12T02:28:47;25.40;56.50
13569;DHT22;6856;51.460;7.158;2023-09-12T02:31:23;25.40;56.70
13569;DHT22;6856;51.460;7.158;2023-09-12T02:33:56;25.40;56.60
13569;DHT22;6856;51.460;7.158;2023-09-12T02:36:30;25.40;56.70
13569;DHT22;6856;51.460;7.158;2023-09-12T02:39:06;25.40;56.70
13569;DHT22;6856;51.460;7.158;2023-09-12T02:41:40;25.40;56.70
13569;DHT22;6856;51.460;7.158;2023-09-12T02:44:14;25.40;56.60
13569;DHT22;6856;51.460;7.158;2023-09-12T02:46:50;25.40;56.60
13569;DHT22;6856;51.460;7.158;2023-09-12T02:49:24;25.40;56.70
13569;DHT22;6856;51.460;7.158;2023-09-12T02:51:58;25.40;56.70
13569;DHT22;6856;51.460;7.158;2023-09-12T02:54:32;25.40;56.80
13569;DHT22;6856;51.460;7.158;2023-09-12T02:57:06;25.40;56.70
13569;DHT22;6856;51.460;7.158;2023-09-12T02:59:40;25.40;56.80
13569;DHT22;6856;51.460;7.158;2023-09-12T03:02:15;25.40;56.70
13569;DHT22;6856;51.460;7.158;2023-09-12T03:04:49;25.40;56.80
13569;DHT22;6856;51.460;7.158;2023-09-12T03:07:23;25.40;57.00
13569;DHT22;6856;51.460;7.158;2023-09-12T03:09:57;25.40;56.90
13569;DHT22;6856;51.460;7.158;2023-09-12T03:12:30;25.40;56.90
13569;DHT22;6856;51.460;7.158;2023-09-12T03:15:05;25.40;57.00
13569;DHT22;6856;51.460;7.158;2023-09-12T03:17:43;25.30;57.00
13569;DHT22;6856;51.460;7.158;2023-09-12T03:20:17;25.30;57.00
13569;DHT22;6856;51.460;7.158;2023-09-12T03:22:54;25.30;57.00
13569;DHT22;6856;51.460;7.158;2023-09-12T03:25:28;25.30;57.10
13569;DHT22;6856;51.460;7.158;2023-09-12T03:28:08;25.30;57.00
13569;DHT22;6856;51.460;7.158;2023-09-12T03:30:42;25.30;57.00
13569;DHT22;6856;51.460;7.158;2023-09-12T03:33:18;25.30;57.30
13569;DHT22;6856;51.460;7.158;2023-09-12T03:35:52;25.30;57.20
13569;DHT22;6856;51.460;7.158;2023-09-12T03:38:27;25.30;57.20
13569;DHT22;6856;51.460;7.158;2023-09-12T03:41:00;25.20;57.10
13569;DHT22;6856;51.460;7.158;2023-09-12T03:43:34;25.20;57.30
13569;DHT22;6856;51.460;7.158;2023-09-12T03:46:08;25.20;57.90
13569;DHT22;6856;51.460;7.158;2023-09-12T03:48:44;25.20;57.40
13569;DHT22;6856;51.460;7.158;2023-09-12T03:51:18;25.10;57.50
13569;DHT22;6856;51.460;7.158;2023-09-12T03:53:52;25.10;57.50
13569;DHT22;6856;51.460;7.158;2023-09-12T03:56:25;25.10;57.60
13569;DHT22;6856;51.460;7.158;2023-09-12T03:58:59;25.10;57.60
13569;DHT22;6856;51.460;7.158;2023-09-12T04:01:33;25.10;57.70
13569;DHT22;6856;51.460;7.158;2023-09-12T04:04:08;25.10;57.70
13569;DHT22;6856;51.460;7.158;2023-09-12T04:06:45;25.00;57.60
13569;DHT22;6856;51.460;7.158;2023-09-12T04:09:19;25.00;57.60
13569;DHT22;6856;51.460;7.158;2023-09-12T04:11:53;25.00;57.70
13569;DHT22;6856;51.460;7.158;2023-09-12T04:14:26;25.00;57.60
13569;DHT22;6856;51.460;7.158;2023-09-12T04:17:00;25.00;57.70
13569;DHT22;6856;51.460;7.158;2023-09-12T04:19:35;25.00;57.80
13569;DHT22;6856;51.460;7.158;2023-09-12T04:22:09;25.00;57.80
13569;DHT22;6856;51.460;7.158;2023-09-12T04:24:43;25.00;57.80
13569;DHT22;6856;51.460;7.158;2023-09-12T04:27:17;25.00;57.80
13569;DHT22;6856;51.460;7.158;2023-09-12T04:29:50;25.00;57.80
13569;DHT22;6856;51.460;7.158;2023-09-12T04:32:25;25.00;57.80
13569;DHT22;6856;51.460;7.158;2023-09-12T04:35:00;25.00;57.70
13569;DHT22;6856;51.460;7.158;2023-09-12T04:37:36;25.00;57.80
13569;DHT22;6856;51.460;7.158;2023-09-12T04:40:11;24.90;57.80
13569;DHT22;6856;51.460;7.158;2023-09-12T04:42:45;25.00;57.80
13569;DHT22;6856;51.460;7.158;2023-09-12T04:45:19;25.00;57.80
13569;DHT22;6856;51.460;7.158;2023-09-12T04:47:54;24.90;57.80
13569;DHT22;6856;51.460;7.158;2023-09-12T04:50:29;24.90;57.80
13569;DHT22;6856;51.460;7.158;2023-09-12T04:53:03;24.90;57.60
13569;DHT22;6856;51.460;7.158;2023-09-12T04:55:37;24.90;57.80
13569;DHT22;6856;51.460;7.158;2023-09-12T04:58:10;24.90;57.80
13569;DHT22;6856;51.460;7.158;2023-09-12T05:00:45;24.90;57.80
13569;DHT22;6856;51.460;7.158;2023-09-12T05:03:20;24.90;57.80
13569;DHT22;6856;51.460;7.158;2023-09-12T05:05:55;24.90;57.80
13569;DHT22;6856;51.460;7.158;2023-09-12T05:08:30;24.90;57.90
13569;DHT22;6856;51.460;7.158;2023-09-12T05:11:04;24.90;57.90
13569;DHT22;6856;51.460;7.158;2023-09-12T05:13:39;24.80;58.40
13569;DHT22;6856;51.460;7.158;2023-09-12T05:16:13;24.90;57.90
13569;DHT22;6856;51.460;7.158;2023-09-12T05:18:47;24.80;57.90
13569;DHT22;6856;51.460;7.158;2023-09-12T05:21:25;24.80;57.90
13569;DHT22;6856;51.460;7.158;2023-09-12T05:23:59;24.80;58.00
13569;DHT22;6856;51.460;7.158;2023-09-12T05:26:33;24.80;58.00
13569;DHT22;6856;51.460;7.158;2023-09-12T05:29:07;24.80;58.00
13569;DHT22;6856;51.460;7.158;2023-09-12T05:31:40;24.80;57.90
13569;DHT22;6856;51.460;7.158;2023-09-12T05:34:15;24.70;58.00
13569;DHT22;6856;51.460;7.158;2023-09-12T05:36:52;24.70;57.90
13569;DHT22;6856;51.460;7.158;2023-09-12T05:39:27;24.70;58.00
13569;DHT22;6856;51.460;7.158;2023-09-12T05:42:01;24.70;58.00
13569;DHT22;6856;51.460;7.158;2023-09-12T05:44:38;24.70;58.20
13569;DHT22;6856;51.460;7.158;2023-09-12T05:47:12;24.60;58.20
13569;DHT22;6856;51.460;7.158;2023-09-12T05:49:46;24.60;58.00
13569;DHT22;6856;51.460;7.158;2023-09-12T05:52:21;24.60;58.40
13569;DHT22;6856;51.460;7.158;2023-09-12T05:54:54;24.60;58.40
13569;DHT22;6856;51.460;7.158;2023-09-12T05:57:28;24.60;58.60
13569;DHT22;6856;51.460;7.158;2023-09-12T06:00:06;24.60;58.60
13569;DHT22;6856;51.460;7.158;2023-09-12T06:02:43;24.60;58.70
13569;DHT22;6856;51.460;7.158;2023-09-12T06:05:18;24.50;58.70
13569;DHT22;6856;51.460;7.158;2023-09-12T06:07:53;24.50;58.80
13569;DHT22;6856;51.460;7.158;2023-09-12T06:10:27;24.50;58.90
13569;DHT22;6856;51.460;7.158;2023-09-12T06:13:01;24.50;59.00
13569;DHT22;6856;51.460;7.158;2023-09-12T06:15:35;24.50;59.00
13569;DHT22;6856;51.460;7.158;2023-09-12T06:18:11;24.50;59.10
13569;DHT22;6856;51.460;7.158;2023-09-12T06:20:44;24.50;59.10
13569;DHT22;6856;51.460;7.158;2023-09-12T06:23:19;24.50;59.20
13569;DHT22;6856;51.460;7.158;2023-09-12T06:25:53;24.50;59.20
13569;DHT22;6856;51.460;7.158;2023-09-12T06:28:30;24.50;59.40
13569;DHT22;6856;51.460;7.158;2023-09-12T06:31:07;24.50;59.70
13569;DHT22;6856;51.460;7.158;2023-09-12T06:33:42;24.50;59.80
13569;DHT22;6856;51.460;7.158;2023-09-12T06:36:17;24.50;59.70
13569;DHT22;6856;51.460;7.158;2023-09-12T06:38:52;24.50;59.70
13569;DHT22;6856;51.460;7.158;2023-09-12T06:41:27;24.40;59.60
13569;DHT22;6856;51.460;7.158;2023-09-12T06:44:03;24.40;59.70
13569;DHT22;6856;51.460;7.158;2023-09-12T06:46:38;24.30;59.80
13569;DHT22;6856;51.460;7.158;2023-09-12T06:49:32;24.20;59.90
13569;DHT22;6856;51.460;7.158;2023-09-12T06:52:26;24.10;60.20
13569;DHT22;6856;51.460;7.158;2023-09-12T06:55:01;24.00;60.30
13569;DHT22;6856;51.460;7.158;2023-09-12T06:57:35;24.00;60.60
13569;DHT22;6856;51.460;7.158;2023-09-12T07:00:10;23.90;60.80
13569;DHT22;6856;51.460;7.158;2023-09-12T07:02:48;23.90;61.90
13569;DHT22;6856;51.460;7.158;2023-09-12T07:05:21;23.80;61.00
13569;DHT22;6856;51.460;7.158;2023-09-12T07:07:55;23.80;61.20
13569;DHT22;6856;51.460;7.158;2023-09-12T07:10:30;23.80;61.40
13569;DHT22;6856;51.460;7.158;2023-09-12T07:13:05;23.80;61.40
13569;DHT22;6856;51.460;7.158;2023-09-12T07:15:39;23.80;61.50
13569;DHT22;6856;51.460;7.158;2023-09-12T07:18:17;23.90;61.60
13569;DHT22;6856;51.460;7.158;2023-09-12T07:20:57;23.90;61.70
13569;DHT22;6856;51.460;7.158;2023-09-12T07:23:31;24.00;62.00
13569;DHT22;6856;51.460;7.158;2023-09-12T07:26:13;24.00;61.80
13569;DHT22;6856;51.460;7.158;2023-09-12T07:28:49;24.00;61.80
13569;DHT22;6856;51.460;7.158;2023-09-12T07:31:22;24.10;61.90
13569;DHT22;6856;51.460;7.158;2023-09-12T07:33:56;24.10;61.80
13569;DHT22;6856;51.460;7.158;2023-09-12T07:36:30;24.10;61.60
13569;DHT22;6856;51.460;7.158;2023-09-12T07:39:04;24.10;61.60
13569;DHT22;6856;51.460;7.158;2023-09-12T07:41:40;24.20;61.70
13569;DHT22;6856;51.460;7.158;2023-09-12T07:44:13;24.20;61.80
13569;DHT22;6856;51.460;7.158;2023-09-12T07:46:48;24.20;61.60
13569;DHT22;6856;51.460;7.158;2023-09-12T07:49:23;24.20;61.60
13569;DHT22;6856;51.460;7.158;2023-09-12T07:51:58;24.30;61.70
13569;DHT22;6856;51.460;7.158;2023-09-12T07:54:31;24.20;61.60
13569;DHT22;6856;51.460;7.158;2023-09-12T07:57:06;24.20;61.60
13569;DHT22;6856;51.460;7.158;2023-09-12T07:59:40;24.30;61.90
13569;DHT22;6856;51.460;7.158;2023-09-12T08:02:14;24.30;62.10
13569;DHT22;6856;51.460;7.158;2023-09-12T08:04:49;24.40;62.10
13569;DHT22;6856;51.460;7.158;2023-09-12T08:07:26;24.40;62.20
13569;DHT22;6856;51.460;7.158;2023-09-12T08:10:00;24.40;62.50
13569;DHT22;6856;51.460;7.158;2023-09-12T08:12:36;24.50;62.60
13569;DHT22;6856;51.460;7.158;2023-09-12T08:15:12;24.50;62.60
13569;DHT22;6856;51.460;7.158;2023-09-12T08:17:46;24.50;62.40
13569;DHT22;6856;51.460;7.158;2023-09-12T08:20:26;24.60;62.30
13569;DHT22;6856;51.460;7.158;2023-09-12T08:23:01;24.60;62.00
13569;DHT22;6856;51.460;7.158;2023-09-12T08:25:34;24.60;61.90
13569;DHT22;6856;51.460;7.158;2023-09-12T08:28:10;24.60;61.90
13569;DHT22;6856;51.460;7.158;2023-09-12T08:30:44;24.60;61.80
13569;DHT22;6856;51.460;7.158;2023-09-12T08:33:18;24.70;61.80
13569;DHT22;6856;51.460;7.158;2023-09-12T08:35:56;24.70;61.70
13569;DHT22;6856;51.460;7.158;2023-09-12T08:38:30;24.70;62.00
13569;DHT22;6856;51.460;7.158;2023-09-12T08:41:03;24.70;62.00
13569;DHT22;6856;51.460;7.158;2023-09-12T08:43:40;24.70;62.10
13569;DHT22;6856;51.460;7.158;2023-09-12T08:46:17;24.70;62.00
13569;DHT22;6856;51.460;7.158;2023-09-12T08:48:55;24.70;61.90
13569;DHT22;6856;51.460;7.158;2023-09-12T08:51:29;24.70;62.20
13569;DHT22;6856;51.460;7.158;2023-09-12T08:54:04;24.80;62.20
13569;DHT22;6856;51.460;7.158;2023-09-12T08:56:40;24.80;62.50
13569;DHT22;6856;51.460;7.158;2023-09-12T08:59:17;24.80;63.50
13569;DHT22;6856;51.460;7.158;2023-09-12T09:01:50;24.80;62.70
13569;DHT22;6856;51.460;7.158;2023-09-12T09:04:27;24.90;63.00
13569;DHT22;6856;51.460;7.158;2023-09-12T09:07:03;24.90;63.00
13569;DHT22;6856;51.460;7.158;2023-09-12T09:09:38;25.00;62.90
13569;DHT22;6856;51.460;7.158;2023-09-12T09:12:12;25.00;62.70
13569;DHT22;6856;51.460;7.158;2023-09-12T09:14:47;25.10;62.70
13569;DHT22;6856;51.460;7.158;2023-09-12T09:17:21;25.10;62.70
13569;DHT22;6856;51.460;7.158;2023-09-12T09:20:07;25.20;63.00
13569;DHT22;6856;51.460;7.158;2023-09-12T09:22:56;25.40;63.20
13569;DHT22;6856;51.460;7.158;2023-09-12T09:25:30;25.50;63.20
13569;DHT22;6856;51.460;7.158;2023-09-12T09:28:15;25.50;62.80
13569;DHT22;6856;51.460;7.158;2023-09-12T09:30:51;25.70;62.80
13569;DHT22;6856;51.460;7.158;2023-09-12T09:33:27;25.80;62.80
13569;DHT22;6856;51.460;7.158;2023-09-12T09:36:07;25.90;62.60
13569;DHT22;6856;51.460;7.158;2023-09-12T09:38:42;26.00;62.10
13569;DHT22;6856;51.460;7.158;2023-09-12T09:41:19;26.10;61.90
13569;DHT22;6856;51.460;7.158;2023-09-12T09:43:53;26.20;61.70
13569;DHT22;6856;51.460;7.158;2023-09-12T09:46:29;26.40;61.30
13569;DHT22;6856;51.460;7.158;2023-09-12T09:49:02;26.40;61.80
13569;DHT22;6856;51.460;7.158;2023-09-12T09:51:41;26.50;61.90
13569;DHT22;6856;51.460;7.158;2023-09-12T09:54:15;26.60;61.60
13569;DHT22;6856;51.460;7.158;2023-09-12T09:56:50;26.70;60.50
13569;DHT22;6856;51.460;7.158;2023-09-12T09:59:27;26.80;59.90
13569;DHT22;6856;51.460;7.158;2023-09-12T10:02:04;26.80;59.70
13569;DHT22;6856;51.460;7.158;2023-09-12T10:04:48;26.80;59.50
13569;DHT22;6856;51.460;7.158;2023-09-12T10:07:32;26.90;59.50
13569;DHT22;6856;51.460;7.158;2023-09-12T10:10:07;26.80;59.70
13569;DHT22;6856;51.460;7.158;2023-09-12T10:12:45;26.80;59.70
13569;DHT22;6856;51.460;7.158;2023-09-12T10:15:23;26.90;59.60
13569;DHT22;6856;51.460;7.158;2023-09-12T10:18:14;26.90;59.20
13569;DHT22;6856;51.460;7.158;2023-09-12T10:21:03;26.90;59.90
13569;DHT22;6856;51.460;7.158;2023-09-12T10:23:44;26.90;59.20
13569;DHT22;6856;51.460;7.158;2023-09-12T10:26:19;26.90;59.50
13569;DHT22;6856;51.460;7.158;2023-09-12T10:28:54;27.00;59.70
13569;DHT22;6856;51.460;7.158;2023-09-12T10:31:30;27.00;59.80
13569;DHT22;6856;51.460;7.158;2023-09-12T10:34:07;27.10;59.20
13569;DHT22;6856;51.460;7.158;2023-09-12T10:36:43;27.20;59.50
13569;DHT22;6856;51.460;7.158;2023-09-12T10:39:19;27.30;59.60
13569;DHT22;6856;51.460;7.158;2023-09-12T10:41:54;27.40;59.00
13569;DHT22;6856;51.460;7.158;2023-09-12T10:44:31;27.50;59.20
13569;DHT22;6856;51.460;7.158;2023-09-12T10:47:07;27.60;58.70
13569;DHT22;6856;51.460;7.158;2023-09-12T10:49:44;27.70;58.40
13569;DHT22;6856;51.460;7.158;2023-09-12T10:52:24;27.80;58.10
13569;DHT22;6856;51.460;7.158;2023-09-12T10:54:59;27.90;58.40
13569;DHT22;6856;51.460;7.158;2023-09-12T10:57:35;28.00;58.30
13569;DHT22;6856;51.460;7.158;2023-09-12T11:00:35;28.00;58.20
13569;DHT22;6856;51.460;7.158;2023-09-12T11:03:35;28.10;58.30
13569;DHT22;6856;51.460;7.158;2023-09-12T11:06:22;28.10;57.90
13569;DHT22;6856;51.460;7.158;2023-09-12T11:09:17;28.20;57.40
13569;DHT22;6856;51.460;7.158;2023-09-12T11:11:59;28.30;57.00
13569;DHT22;6856;51.460;7.158;2023-09-12T11:15:03;28.40;57.70
13569;DHT22;6856;51.460;7.158;2023-09-12T11:17:38;28.50;56.90
13569;DHT22;6856;51.460;7.158;2023-09-12T11:20:14;28.50;56.90
13569;DHT22;6856;51.460;7.158;2023-09-12T11:22:50;28.60;57.00
13569;DHT22;6856;51.460;7.158;2023-09-12T11:25:26;28.60;56.70
13569;DHT22;6856;51.460;7.158;2023-09-12T11:28:04;28.70;56.70
13569;DHT22;6856;51.460;7.158;2023-09-12T11:30:55;28.70;56.90
13569;DHT22;6856;51.460;7.158;2023-09-12T11:33:34;28.70;56.60
13569;DHT22;6856;51.460;7.158;2023-09-12T11:36:13;28.80;56.20
13569;DHT22;6856;51.460;7.158;2023-09-12T11:38:51;28.80;56.10
13569;DHT22;6856;51.460;7.158;2023-09-12T11:41:40;28.70;55.30
13569;DHT22;6856;51.460;7.158;2023-09-12T11:44:14;28.70;55.80
13569;DHT22;6856;51.460;7.158;2023-09-12T11:46:49;28.70;56.30
13569;DHT22;6856;51.460;7.158;2023-09-12T11:49:24;28.70;56.30
13569;DHT22;6856;51.460;7.158;2023-09-12T11:51:58;28.80;56.90
13569;DHT22;6856;51.460;7.158;2023-09-12T11:54:34;28.80;57.10
13569;DHT22;6856;51.460;7.158;2023-09-12T11:57:08;28.80;56.60
13569;DHT22;6856;51.460;7.158;2023-09-12T11:59:44;28.90;56.30
13569;DHT22;6856;51.460;7.158;2023-09-12T12:02:20;28.90;55.70
13569;DHT22;6856;51.460;7.158;2023-09-12T12:04:57;28.90;55.90
13569;DHT22;6856;51.460;7.158;2023-09-12T12:07:33;28.90;55.70
13569;DHT22;6856;51.460;7.158;2023-09-12T12:10:09;28.90;56.50
13569;DHT22;6856;51.460;7.158;2023-09-12T12:12:44;28.90;56.20
13569;DHT22;6856;51.460;7.158;2023-09-12T12:15:19;28.90;56.20
13569;DHT22;6856;51.460;7.158;2023-09-12T12:17:54;28.90;56.20
13569;DHT22;6856;51.460;7.158;2023-09-12T12:20:28;29.00;56.60
13569;DHT22;6856;51.460;7.158;2023-09-12T12:23:04;29.00;56.50
13569;DHT22;6856;51.460;7.158;2023-09-12T12:25:41;29.10;55.60
13569;DHT22;6856;51.460;7.158;2023-09-12T12:28:16;29.20;55.40
13569;DHT22;6856;51.460;7.158;2023-09-12T12:30:52;29.20;55.30
13569;DHT22;6856;51.460;7.158;2023-09-12T12:33:28;29.20;55.50
13569;DHT22;6856;51.460;7.158;2023-09-12T12:36:03;29.30;55.40
13569;DHT22;6856;51.460;7.158;2023-09-12T12:38:40;29.30;55.50
13569;DHT22;6856;51.460;7.158;2023-09-12T12:41:28;29.30;55.20
13569;DHT22;6856;51.460;7.158;2023-09-12T12:44:17;29.30;54.90
13569;DHT22;6856;51.460;7.158;2023-09-12T12:46:51;29.30;54.60
13569;DHT22;6856;51.460;7.158;2023-09-12T12:49:26;29.20;54.50
13569;DHT22;6856;51.460;7.158;2023-09-12T12:52:02;29.20;54.90
13569;DHT22;6856;51.460;7.158;2023-09-12T12:54:36;29.20;55.00
13569;DHT22;6856;51.460;7.158;2023-09-12T12:57:12;29.30;54.90
13569;DHT22;6856;51.460;7.158;2023-09-12T12:59:47;29.30;55.00
13569;DHT22;6856;51.460;7.158;2023-09-12T13:02:23;29.30;55.30
13569;DHT22;6856;51.460;7.158;2023-09-12T13:04:57;29.40;55.20
13569;DHT22;6856;51.460;7.158;2023-09-12T13:07:31;29.50;54.80
13569;DHT22;6856;51.460;7.158;2023-09-12T13:10:06;29.50;54.70
13569;DHT22;6856;51.460;7.158;2023-09-12T13:12:41;29.60;55.00
13569;DHT22;6856;51.460;7.158;2023-09-12T13:15:18;29.70;55.10
13569;DHT22;6856;51.460;7.158;2023-09-12T13:17:51;29.70;55.00
13569;DHT22;6856;51.460;7.158;2023-09-12T13:20:26;29.70;54.90
13569;DHT22;6856;51.460;7.158;2023-09-12T13:23:00;29.80;54.70
13569;DHT22;6856;51.460;7.158;2023-09-12T13:25:34;29.80;54.50
13569;DHT22;6856;51.460;7.158;2023-09-12T13:28:09;29.90;54.40
13569;DHT22;6856;51.460;7.158;2023-09-12T13:30:43;29.90;54.10
13569;DHT22;6856;51.460;7.158;2023-09-12T13:33:17;29.90;53.90
13569;DHT22;6856;51.460;7.158;2023-09-12T13:35:51;29.90;53.90
13569;DHT22;6856;51.460;7.158;2023-09-12T13:38:25;29.90;53.80
13569;DHT22;6856;51.460;7.158;2023-09-12T13:40:59;29.90;53.70
13569;DHT22;6856;51.460;7.158;2023-09-12T13:43:34;29.80;53.30
13569;DHT22;6856;51.460;7.158;2023-09-12T13:46:08;29.80;53.50
13569;DHT22;6856;51.460;7.158;2023-09-12T13:48:42;29.80;53.20
13569;DHT22;6856;51.460;7.158;2023-09-12T13:51:18;29.80;53.10
13569;DHT22;6856;51.460;7.158;2023-09-12T13:53:52;29.70;53.10
13569;DHT22;6856;51.460;7.158;2023-09-12T13:56:26;29.70;52.90
13569;DHT22;6856;51.460;7.158;2023-09-12T13:59:01;29.70;53.00
13569;DHT22;6856;51.460;7.158;2023-09-12T14:01:37;29.70;53.10
13569;DHT22;6856;51.460;7.158;2023-09-12T14:04:12;29.70;53.20
13569;DHT22;6856;51.460;7.158;2023-09-12T14:06:48;29.70;53.60
13569;DHT22;6856;51.460;7.158;2023-09-12T14:09:23;29.70;52.90
13569;DHT22;6856;51.460;7.158;2023-09-12T14:11:58;29.70;52.70
13569;DHT22;6856;51.460;7.158;2023-09-12T14:14:34;29.70;52.80
13569;DHT22;6856;51.460;7.158;2023-09-12T14:17:09;29.60;52.90
13569;DHT22;6856;51.460;7.158;2023-09-12T14:19:44;29.60;53.10
13569;DHT22;6856;51.460;7.158;2023-09-12T14:22:21;29.60;53.20
13569;DHT22;6856;51.460;7.158;2023-09-12T14:24:56;29.60;53.00
13569;DHT22;6856;51.460;7.158;2023-09-12T14:27:30;29.60;53.00
13569;DHT22;6856;51.460;7.158;2023-09-12T14:30:08;29.60;53.30
13569;DHT22;6856;51.460;7.158;2023-09-12T14:32:43;29.60;53.50
13569;DHT22;6856;51.460;7.158;2023-09-12T14:35:17;29.60;53.10
13569;DHT22;6856;51.460;7.158;2023-09-12T14:37:52;29.60;52.80
13569;DHT22;6856;51.460;7.158;2023-09-12T14:40:27;29.60;52.50
13569;DHT22;6856;51.460;7.158;2023-09-12T14:43:01;29.60;52.50
13569;DHT22;6856;51.460;7.158;2023-09-12T14:45:37;29.50;52.80
13569;DHT22;6856;51.460;7.158;2023-09-12T14:48:11;29.50;52.70
13569;DHT22;6856;51.460;7.158;2023-09-12T14:50:46;29.50;52.60
13569;DHT22;6856;51.460;7.158;2023-09-12T14:53:21;29.50;52.80
13569;DHT22;6856;51.460;7.158;2023-09-12T14:55:54;29.50;52.90
13569;DHT22;6856;51.460;7.158;2023-09-12T14:58:28;29.50;53.00
13569;DHT22;6856;51.460;7.158;2023-09-12T15:01:04;29.50;53.30
13569;DHT22;6856;51.460;7.158;2023-09-12T15:03:38;29.50;53.40
13569;DHT22;6856;51.460;7.158;2023-09-12T15:06:12;29.50;52.80
13569;DHT22;6856;51.460;7.158;2023-09-12T15:08:49;29.50;52.80
13569;DHT22;6856;51.460;7.158;2023-09-12T15:11:23;29.50;52.70
13569;DHT22;6856;51.460;7.158;2023-09-12T15:13:57;29.40;52.70
13569;DHT22;6856;51.460;7.158;2023-09-12T15:16:32;29.40;52.60
13569;DHT22;6856;51.460;7.158;2023-09-12T15:19:06;29.40;52.80
13569;DHT22;6856;51.460;7.158;2023-09-12T15:21:41;29.40;52.90
13569;DHT22;6856;51.460;7.158;2023-09-12T15:24:14;29.40;53.10
13569;DHT22;6856;51.460;7.158;2023-09-12T15:26:49;29.30;53.10
13569;DHT22;6856;51.460;7.158;2023-09-12T15:29:23;29.30;53.20
13569;DHT22;6856;51.460;7.158;2023-09-12T15:31:59;29.30;53.10
13569;DHT22;6856;51.460;7.158;2023-09-12T15:34:33;29.20;53.10
13569;DHT22;6856;51.460;7.158;2023-09-12T15:37:08;29.20;53.10
13569;DHT22;6856;51.460;7.158;2023-09-12T15:39:46;29.20;53.30
13569;DHT22;6856;51.460;7.158;2023-09-12T15:42:20;29.10;53.30
13569;DHT22;6856;51.460;7.158;2023-09-12T15:45:08;29.10;53.30
13569;DHT22;6856;51.460;7.158;2023-09-12T15:47:45;29.00;53.50
13569;DHT22;6856;51.460;7.158;2023-09-12T15:50:19;29.00;53.40
13569;DHT22;6856;51.460;7.158;2023-09-12T15:52:53;29.00;53.50
13569;DHT22;6856;51.460;7.158;2023-09-12T15:55:26;28.90;53.40
13569;DHT22;6856;51.460;7.158;2023-09-12T15:58:00;29.00;53.70
13569;DHT22;6856;51.460;7.158;2023-09-12T16:00:34;28.90;53.60
13569;DHT22;6856;51.460;7.158;2023-09-12T16:03:10;28.90;53.70
13569;DHT22;6856;51.460;7.158;2023-09-12T16:05:45;28.90;53.70
13569;DHT22;6856;51.460;7.158;2023-09-12T16:08:20;28.90;54.20
13569;DHT22;6856;51.460;7.158;2023-09-12T16:10:53;28.80;53.20
13569;DHT22;6856;51.460;7.158;2023-09-12T16:13:27;28.80;53.50
13569;DHT22;6856;51.460;7.158;2023-09-12T16:16:01;28.80;53.70
13569;DHT22;6856;51.460;7.158;2023-09-12T16:18:37;28.80;53.60
13569;DHT22;6856;51.460;7.158;2023-09-12T16:21:11;28.70;53.70
13569;DHT22;6856;51.460;7.158;2023-09-12T16:23:45;28.70;53.50
13569;DHT22;6856;51.460;7.158;2023-09-12T16:26:22;28.70;53.30
13569;DHT22;6856;51.460;7.158;2023-09-12T16:28:56;28.60;53.60
13569;DHT22;6856;51.460;7.158;2023-09-12T16:31:30;28.60;53.40
13569;DHT22;6856;51.460;7.158;2023-09-12T16:34:06;28.50;53.40
13569;DHT22;6856;51.460;7.158;2023-09-12T16:36:40;28.50;53.50
13569;DHT22;6856;51.460;7.158;2023-09-12T16:39:14;28.50;53.70
13569;DHT22;6856;51.460;7.158;2023-09-12T16:41:50;28.40;53.90